createdAt,value
2022-12-03T00:00:49.625Z,81.66
2022-12-03T00:03:17.606Z,81.44
2022-12-03T00:05:48.776Z,81.82
2022-12-03T00:08:16.738Z,81.90
2022-12-03T00:10:43.693Z,81.78
2022-12-03T00:13:10.682Z,81.69
2022-12-03T00:15:37.579Z,81.26
2022-12-03T00:18:04.513Z,81.24
2022-12-03T00:20:31.381Z,81.83
2022-12-03T00:22:58.194Z,81.75
2022-12-03T00:25:25.223Z,81.50
2022-12-03T00:27:52.335Z,81.42
2022-12-03T00:30:19.332Z,81.22
2022-12-03T00:32:46.146Z,81.20
2022-12-03T00:35:12.975Z,81.12
2022-12-03T00:37:39.802Z,81.29
2022-12-03T00:40:07.510Z,80.94
2022-12-03T00:42:34.542Z,81.15
2022-12-03T00:45:01.585Z,80.72
2022-12-03T00:47:28.409Z,81.04
2022-12-03T00:49:55.420Z,80.91
2022-12-03T00:52:22.285Z,81.34
2022-12-03T00:54:49.399Z,80.93
2022-12-03T00:57:16.409Z,81.47
2022-12-03T00:59:43.405Z,81.12
2022-12-03T01:02:10.548Z,81.50
2022-12-03T01:04:37.523Z,81.48
2022-12-03T01:07:04.627Z,81.31
2022-12-03T01:09:31.678Z,81.14
2022-12-03T01:11:58.984Z,81.37
2022-12-03T01:14:25.820Z,81.41
2022-12-03T01:16:52.874Z,80.89
2022-12-03T01:19:19.868Z,81.34
2022-12-03T01:21:49.095Z,80.94
2022-12-03T01:24:19.118Z,80.78
2022-12-03T01:26:46.169Z,81.16
2022-12-03T01:29:13.968Z,81.28
2022-12-03T01:31:59.766Z,81.25
2022-12-03T01:34:26.846Z,80.92
2022-12-03T01:36:54.747Z,80.93
2022-12-03T01:39:21.734Z,81.18
2022-12-03T01:41:51.495Z,81.18
2022-12-03T01:44:24.680Z,81.11
2022-12-03T01:46:56.056Z,81.14
2022-12-03T01:49:38.643Z,81.40
2022-12-03T01:52:06.133Z,81.13
2022-12-03T01:54:39.998Z,81.10
2022-12-03T01:57:22.183Z,81.24
2022-12-03T01:59:50.522Z,81.11
2022-12-03T02:02:23.282Z,81.06
2022-12-03T02:04:52.998Z,81.27
2022-12-03T02:07:32.196Z,81.45
2022-12-03T02:10:01.739Z,81.00
2022-12-03T02:12:47.753Z,81.26
2022-12-03T02:15:15.211Z,81.37
2022-12-03T02:17:43.181Z,81.92
2022-12-03T02:20:11.927Z,81.77
2022-12-03T02:23:07.649Z,81.50
2022-12-03T02:25:36.600Z,81.41
2022-12-03T02:28:06.174Z,81.56
2022-12-03T02:30:34.460Z,82.11
2022-12-03T02:33:02.437Z,81.69
2022-12-03T02:35:34.215Z,82.04
2022-12-03T02:38:09.419Z,82.01
2022-12-03T02:40:37.139Z,81.89
2022-12-03T02:43:05.943Z,81.91
2022-12-03T02:45:42.516Z,81.94
2022-12-03T02:48:23.339Z,82.00
2022-12-03T02:50:57.341Z,81.93
2022-12-03T02:53:35.671Z,81.95
2022-12-03T02:56:04.283Z,82.05
2022-12-03T02:58:33.907Z,82.06
2022-12-03T03:01:04.211Z,81.83
2022-12-03T03:03:33.272Z,81.96
2022-12-03T03:06:03.328Z,82.72
2022-12-03T03:08:31.642Z,82.06
2022-12-03T03:11:01.897Z,82.38
2022-12-03T03:13:32.156Z,82.41
2022-12-03T03:15:59.328Z,82.10
2022-12-03T03:18:26.249Z,82.45
2022-12-03T03:20:53.561Z,82.56
2022-12-03T03:23:22.575Z,82.55
2022-12-03T03:25:57.376Z,82.02
2022-12-03T03:28:25.556Z,82.32
2022-12-03T03:30:53.199Z,82.30
2022-12-03T03:33:20.767Z,82.28
2022-12-03T03:35:49.132Z,82.66
2022-12-03T03:38:20.704Z,82.64
2022-12-03T03:40:50.966Z,82.22
2022-12-03T03:43:21.918Z,82.91
2022-12-03T03:45:52.143Z,82.82
2022-12-03T03:48:21.369Z,82.55
2022-12-03T03:50:50.736Z,83.13
2022-12-03T03:53:20.625Z,82.56
2022-12-03T03:55:47.815Z,82.65
2022-12-03T03:58:14.809Z,82.53
2022-12-03T04:00:46.069Z,82.83
2022-12-03T04:03:13.915Z,82.87
2022-12-03T04:05:41.019Z,83.03
2022-12-03T04:08:07.988Z,82.62
2022-12-03T04:10:53.594Z,82.74
2022-12-03T04:13:20.595Z,82.96
2022-12-03T04:15:47.638Z,83.15
2022-12-03T04:18:32.787Z,82.98
2022-12-03T04:21:18.486Z,82.81
2022-12-03T04:23:45.339Z,82.78
2022-12-03T04:26:30.692Z,82.99
2022-12-03T04:28:57.843Z,82.84
2022-12-03T04:31:43.276Z,82.78
2022-12-03T04:34:29.507Z,82.67
2022-12-03T04:36:56.341Z,82.85
2022-12-03T04:39:23.239Z,82.90
2022-12-03T04:41:50.068Z,82.99
2022-12-03T04:44:35.613Z,82.81
2022-12-03T04:47:32.291Z,83.20
2022-12-03T04:50:01.290Z,83.19
2022-12-03T04:52:28.110Z,83.54
2022-12-03T04:54:55.345Z,83.27
2022-12-03T04:57:22.483Z,83.31
2022-12-03T04:59:49.510Z,83.20
2022-12-03T05:02:16.965Z,83.49
2022-12-03T05:04:44.030Z,83.40
2022-12-03T05:07:10.858Z,83.13
2022-12-03T05:09:37.700Z,83.33
2022-12-03T05:12:04.906Z,83.26
2022-12-03T05:14:31.742Z,83.37
2022-12-03T05:16:58.695Z,83.56
2022-12-03T05:19:45.540Z,83.35
2022-12-03T05:22:12.566Z,83.34
2022-12-03T05:24:39.656Z,83.08
2022-12-03T05:27:06.497Z,83.31
2022-12-03T05:29:33.556Z,83.29
2022-12-03T05:32:00.391Z,83.19
2022-12-03T05:34:27.225Z,83.37
2022-12-03T05:36:54.068Z,83.30
2022-12-03T05:39:20.916Z,83.61
2022-12-03T05:42:06.002Z,83.54
2022-12-03T05:44:32.995Z,83.43
2022-12-03T05:46:59.992Z,83.55
2022-12-03T05:49:27.400Z,83.78
2022-12-03T05:51:58.413Z,83.41
2022-12-03T05:54:25.988Z,83.46
2022-12-03T05:56:52.816Z,83.98
2022-12-03T05:59:19.674Z,84.21
2022-12-03T06:01:46.579Z,84.01
2022-12-03T06:04:13.440Z,83.94
2022-12-03T06:06:40.453Z,84.51
2022-12-03T06:09:07.479Z,84.45
2022-12-03T06:11:35.049Z,84.29
2022-12-03T06:14:02.233Z,84.55
2022-12-03T06:16:29.317Z,84.42
2022-12-03T06:18:56.379Z,84.08
2022-12-03T06:21:23.250Z,84.33
2022-12-03T06:23:50.101Z,84.32
2022-12-03T06:26:17.087Z,83.92
2022-12-03T06:28:46.329Z,84.46
2022-12-03T06:31:13.712Z,84.07
2022-12-03T06:33:40.696Z,83.97
2022-12-03T06:36:07.924Z,84.03
2022-12-03T06:38:34.922Z,83.51
2022-12-03T06:41:01.757Z,83.23
2022-12-03T06:43:30.810Z,83.42
2022-12-03T06:45:57.854Z,83.50
2022-12-03T06:48:24.699Z,83.58
2022-12-03T06:50:51.588Z,83.16
2022-12-03T06:53:18.600Z,83.21
2022-12-03T06:55:45.606Z,83.29
2022-12-03T06:58:12.422Z,83.21
2022-12-03T07:00:39.458Z,83.03
2022-12-03T07:03:06.366Z,83.06
2022-12-03T07:05:33.251Z,82.97
2022-12-03T07:08:00.329Z,82.96
2022-12-03T07:10:27.296Z,82.79
2022-12-03T07:12:54.159Z,82.76
2022-12-03T07:15:21.182Z,82.55
2022-12-03T07:17:48.226Z,82.62
2022-12-03T07:20:16.198Z,82.26
2022-12-03T07:22:43.338Z,82.51
2022-12-03T07:25:12.331Z,82.93
2022-12-03T07:27:39.153Z,82.57
2022-12-03T07:30:07.982Z,82.15
2022-12-03T07:32:34.809Z,81.59
2022-12-03T07:35:02.800Z,82.15
2022-12-03T07:37:29.630Z,81.99
2022-12-03T07:39:56.630Z,81.97
2022-12-03T07:42:23.512Z,82.09
2022-12-03T07:44:50.702Z,81.63
2022-12-03T07:47:17.910Z,81.83
2022-12-03T07:49:44.737Z,81.72
2022-12-03T07:52:11.720Z,81.76
2022-12-03T07:54:38.561Z,81.72
2022-12-03T07:57:05.427Z,81.63
2022-12-03T07:59:32.412Z,81.41
2022-12-03T08:01:59.320Z,81.35
2022-12-03T08:04:26.377Z,81.41
2022-12-03T08:06:53.378Z,81.23
2022-12-03T08:09:20.624Z,81.61
2022-12-03T08:11:48.883Z,81.62
2022-12-03T08:14:19.101Z,80.94
2022-12-03T08:16:47.805Z,80.92
2022-12-03T08:19:17.997Z,80.93
2022-12-03T08:21:45.296Z,80.98
2022-12-03T08:24:20.607Z,80.44
2022-12-03T08:26:49.491Z,80.14
2022-12-03T08:29:19.041Z,80.15
2022-12-03T08:31:49.850Z,80.07
2022-12-03T08:34:17.536Z,80.34
2022-12-03T08:36:45.747Z,80.16
2022-12-03T08:39:29.650Z,80.33
2022-12-03T08:42:34.760Z,80.12
2022-12-03T08:45:29.337Z,80.05
2022-12-03T08:47:57.848Z,79.74
2022-12-03T08:50:35.853Z,79.33
2022-12-03T08:53:25.544Z,80.06
2022-12-03T08:55:57.066Z,79.53
2022-12-03T08:58:36.421Z,78.83
2022-12-03T09:01:17.898Z,79.06
2022-12-03T09:03:52.109Z,79.05
2022-12-03T09:06:19.044Z,79.06
2022-12-03T09:08:46.165Z,78.64
2022-12-03T09:11:14.266Z,79.15
2022-12-03T09:13:41.082Z,78.86
2022-12-03T09:16:08.141Z,79.11
2022-12-03T09:18:35.007Z,79.04
2022-12-03T09:21:02.004Z,79.37
2022-12-03T09:23:28.839Z,79.09
2022-12-03T09:25:55.650Z,78.98
2022-12-03T09:28:22.553Z,78.93
2022-12-03T09:30:49.559Z,78.98
2022-12-03T09:33:16.647Z,79.27
2022-12-03T09:35:43.512Z,79.64
2022-12-03T09:38:10.955Z,78.90
2022-12-03T09:40:37.831Z,79.31
2022-12-03T09:43:05.163Z,79.00
2022-12-03T09:45:32.263Z,78.61
2022-12-03T09:48:03.703Z,78.66
2022-12-03T09:50:31.840Z,78.43
2022-12-03T09:53:03.704Z,78.37
2022-12-03T09:55:31.071Z,78.72
2022-12-03T09:57:58.520Z,78.67
2022-12-03T10:00:29.542Z,78.20
2022-12-03T10:03:04.364Z,78.61
2022-12-03T10:05:31.342Z,78.27
2022-12-03T10:08:06.365Z,78.22
2022-12-03T10:10:36.393Z,78.31
2022-12-03T10:13:05.478Z,78.78
2022-12-03T10:15:32.841Z,78.47
2022-12-03T10:18:16.510Z,78.18
2022-12-03T10:20:43.595Z,78.62
2022-12-03T10:23:23.381Z,77.90
2022-12-03T10:25:59.551Z,78.06
2022-12-03T10:28:33.597Z,78.84
2022-12-03T10:31:03.788Z,78.45
2022-12-03T10:33:43.065Z,78.59
2022-12-03T10:36:19.089Z,78.33
2022-12-03T10:38:46.318Z,78.88
2022-12-03T10:41:28.828Z,78.62
2022-12-03T10:44:14.311Z,77.99
2022-12-03T10:46:41.563Z,77.89
2022-12-03T10:49:18.505Z,78.58
2022-12-03T10:51:47.504Z,78.26
2022-12-03T10:54:19.500Z,79.16
2022-12-03T10:56:48.391Z,78.86
2022-12-03T10:59:20.630Z,78.83
2022-12-03T11:01:48.228Z,78.71
2022-12-03T11:04:33.738Z,78.73
2022-12-03T11:07:03.185Z,78.63
2022-12-03T11:09:33.224Z,78.66
2022-12-03T11:12:17.290Z,78.99
2022-12-03T11:14:54.350Z,78.98
2022-12-03T11:17:45.634Z,78.42
2022-12-03T11:20:32.328Z,78.25
2022-12-03T11:23:00.086Z,78.60
2022-12-03T11:25:26.915Z,78.58
2022-12-03T11:28:11.820Z,78.21
2022-12-03T11:30:51.559Z,78.26
2022-12-03T11:33:30.832Z,78.45
2022-12-03T11:36:03.529Z,78.34
2022-12-03T11:38:52.994Z,78.04
2022-12-03T11:41:24.979Z,78.51
2022-12-03T11:43:51.755Z,78.55
2022-12-03T11:46:30.902Z,78.50
2022-12-03T11:48:59.941Z,78.82
2022-12-03T11:51:30.333Z,78.93
2022-12-03T11:54:00.075Z,78.28
2022-12-03T11:56:29.635Z,79.12
2022-12-03T11:59:03.580Z,78.66
2022-12-03T12:01:38.863Z,78.34
2022-12-03T12:04:25.633Z,78.20
2022-12-03T12:06:53.552Z,78.61
2022-12-03T12:09:53.788Z,78.64
2022-12-03T12:12:29.699Z,78.66
2022-12-03T12:15:00.483Z,78.62
2022-12-03T12:17:45.433Z,78.87
2022-12-03T12:20:27.683Z,78.76
2022-12-03T12:22:55.382Z,78.41
2022-12-03T12:25:38.437Z,78.34
2022-12-03T12:28:05.287Z,78.40
2022-12-03T12:30:32.369Z,78.06
2022-12-03T12:33:07.927Z,78.13
2022-12-03T12:35:34.785Z,78.06
2022-12-03T12:38:08.516Z,77.80
2022-12-03T12:40:38.331Z,77.78
2022-12-03T12:43:14.418Z,77.91
2022-12-03T12:45:43.651Z,77.75
2022-12-03T12:48:16.269Z,77.66
2022-12-03T12:50:48.379Z,77.51
2022-12-03T12:53:29.164Z,77.53
2022-12-03T12:56:02.449Z,77.85
2022-12-03T12:58:33.076Z,77.75
2022-12-03T13:01:05.624Z,77.42
2022-12-03T13:03:39.304Z,77.74
2022-12-03T13:06:07.219Z,78.05
2022-12-03T13:08:42.460Z,77.62
2022-12-03T13:11:42.000Z,77.78
2022-12-03T13:14:17.448Z,77.15
2022-12-03T13:16:46.339Z,77.94
2022-12-03T13:19:33.064Z,77.51
2022-12-03T13:22:14.797Z,77.65
2022-12-03T13:24:47.905Z,77.31
2022-12-03T13:27:17.717Z,77.31
2022-12-03T13:29:48.584Z,77.39
2022-12-03T13:32:20.199Z,77.89
2022-12-03T13:34:50.303Z,77.82
2022-12-03T13:37:25.064Z,77.58
2022-12-03T13:39:58.103Z,78.09
2022-12-03T13:42:40.515Z,77.70
2022-12-03T13:45:16.208Z,77.54
2022-12-03T13:48:21.531Z,77.49
2022-12-03T13:50:49.553Z,77.95
2022-12-03T13:53:35.540Z,78.12
2022-12-03T13:56:33.703Z,77.72
2022-12-03T13:59:01.669Z,77.97
2022-12-03T14:01:29.076Z,78.37
2022-12-03T14:03:56.909Z,78.30
2022-12-03T14:06:23.990Z,77.81
2022-12-03T14:08:51.386Z,78.40
2022-12-03T14:11:37.661Z,78.41
2022-12-03T14:14:04.759Z,78.34
2022-12-03T14:16:31.911Z,78.42
2022-12-03T14:18:59.012Z,78.80
2022-12-03T14:21:26.099Z,78.80
2022-12-03T14:23:53.116Z,78.97
2022-12-03T14:26:19.957Z,78.68
2022-12-03T14:28:46.834Z,78.62
2022-12-03T14:31:13.776Z,78.88
2022-12-03T14:33:40.800Z,78.82
2022-12-03T14:36:08.086Z,78.69
2022-12-03T14:38:34.935Z,79.00
2022-12-03T14:41:01.855Z,79.36
2022-12-03T14:43:28.899Z,78.90
2022-12-03T14:45:55.762Z,78.92
2022-12-03T14:48:22.832Z,79.06
2022-12-03T14:50:49.680Z,78.97
2022-12-03T14:53:16.702Z,79.25
2022-12-03T14:55:45.480Z,79.21
2022-12-03T14:58:12.746Z,79.56
2022-12-03T15:00:39.679Z,79.36
2022-12-03T15:03:16.685Z,79.69
2022-12-03T15:05:43.817Z,79.67
2022-12-03T15:08:10.725Z,79.85
2022-12-03T15:10:37.599Z,80.15
2022-12-03T15:13:04.445Z,79.82
2022-12-03T15:15:31.274Z,79.81
2022-12-03T15:17:58.293Z,80.10
2022-12-03T15:20:25.425Z,79.93
2022-12-03T15:22:52.438Z,79.86
2022-12-03T15:25:24.308Z,80.40
2022-12-03T15:27:51.649Z,80.28
2022-12-03T15:30:20.531Z,80.39
2022-12-03T15:32:47.589Z,80.64
2022-12-03T15:35:18.284Z,80.62
2022-12-03T15:37:45.576Z,80.49
2022-12-03T15:40:13.469Z,80.67
2022-12-03T15:42:40.488Z,80.92
2022-12-03T15:45:13.482Z,80.84
2022-12-03T15:47:41.902Z,80.92
2022-12-03T15:50:09.281Z,81.05
2022-12-03T15:52:36.440Z,81.21
2022-12-03T15:55:03.910Z,81.07
2022-12-03T15:57:31.198Z,81.30
2022-12-03T15:59:58.036Z,81.11
2022-12-03T16:02:25.121Z,81.05
2022-12-03T16:04:52.008Z,81.35
2022-12-03T16:07:18.904Z,81.52
2022-12-03T16:09:46.065Z,81.49
2022-12-03T16:12:12.924Z,81.27
2022-12-03T16:14:39.786Z,81.19
2022-12-03T16:17:06.642Z,81.28
2022-12-03T16:19:33.542Z,81.30
2022-12-03T16:22:00.740Z,81.28
2022-12-03T16:24:30.007Z,81.62
2022-12-03T16:26:58.658Z,81.26
2022-12-03T16:29:25.672Z,81.28
2022-12-03T16:31:52.709Z,81.20
2022-12-03T16:34:20.027Z,81.64
2022-12-03T16:36:47.616Z,81.26
2022-12-03T16:39:14.716Z,81.18
2022-12-03T16:41:42.292Z,81.40
2022-12-03T16:44:19.811Z,81.36
2022-12-03T16:46:46.937Z,81.52
2022-12-03T16:49:13.891Z,81.52
2022-12-03T16:51:40.725Z,82.02
2022-12-03T16:54:07.728Z,81.62
2022-12-03T16:56:44.902Z,81.28
2022-12-03T16:59:11.938Z,81.43
2022-12-03T17:01:38.823Z,81.84
2022-12-03T17:04:05.718Z,81.98
2022-12-03T17:06:32.860Z,82.17
2022-12-03T17:08:59.851Z,81.81
2022-12-03T17:11:26.684Z,81.60
2022-12-03T17:13:53.637Z,81.54
2022-12-03T17:16:20.621Z,81.64
2022-12-03T17:18:49.405Z,81.62
2022-12-03T17:21:16.423Z,81.57
2022-12-03T17:23:44.658Z,81.48
2022-12-03T17:26:14.275Z,81.38
2022-12-03T17:28:41.274Z,81.60
2022-12-03T17:31:08.776Z,81.40
2022-12-03T17:33:36.107Z,81.63
2022-12-03T17:36:03.958Z,81.49
2022-12-03T17:38:39.098Z,81.55
2022-12-03T17:41:07.422Z,81.44
2022-12-03T17:43:34.629Z,81.15
2022-12-03T17:46:01.536Z,81.39
2022-12-03T17:48:31.273Z,81.42
2022-12-03T17:50:58.782Z,81.55
2022-12-03T17:53:25.819Z,81.47
2022-12-03T17:55:54.045Z,81.27
2022-12-03T17:58:24.148Z,81.12
2022-12-03T18:00:58.611Z,81.48
2022-12-03T18:03:28.926Z,81.77
2022-12-03T18:05:55.788Z,81.77
2022-12-03T18:08:22.888Z,81.73
2022-12-03T18:10:50.137Z,82.03
2022-12-03T18:13:17.626Z,82.15
2022-12-03T18:15:45.180Z,82.43
2022-12-03T18:18:12.039Z,82.69
2022-12-03T18:20:39.019Z,82.14
2022-12-03T18:23:05.875Z,82.48
2022-12-03T18:25:33.106Z,82.36
2022-12-03T18:28:00.125Z,82.83
2022-12-03T18:30:27.098Z,82.60
2022-12-03T18:32:54.385Z,82.23
2022-12-03T18:35:21.414Z,82.35
2022-12-03T18:37:51.029Z,82.30
2022-12-03T18:40:22.490Z,82.37
2022-12-03T18:42:49.376Z,82.35
2022-12-03T18:45:16.960Z,82.17
2022-12-03T18:47:44.483Z,82.47
2022-12-03T18:50:12.260Z,82.03
2022-12-03T18:52:39.554Z,82.24
2022-12-03T18:55:07.231Z,82.17
2022-12-03T18:57:34.280Z,82.54
2022-12-03T19:00:01.294Z,81.88
2022-12-03T19:05:15.166Z,82.24
2022-12-03T19:07:43.369Z,82.07
2022-12-03T19:10:11.419Z,82.12
2022-12-03T19:12:39.015Z,81.74
2022-12-03T19:15:06.614Z,81.69
2022-12-03T19:17:33.627Z,82.05
2022-12-03T19:20:00.535Z,82.25
2022-12-03T19:22:27.541Z,81.90
2022-12-03T19:24:54.543Z,82.25
2022-12-03T19:27:21.345Z,82.45
2022-12-03T19:29:48.897Z,81.75
2022-12-03T19:32:15.911Z,81.75
2022-12-03T19:34:42.776Z,81.79
2022-12-03T19:37:09.814Z,81.77
2022-12-03T19:39:36.671Z,81.87
2022-12-03T19:42:03.741Z,81.82
2022-12-03T19:44:30.616Z,81.62
2022-12-03T19:46:57.657Z,82.03
2022-12-03T19:49:24.562Z,81.72
2022-12-03T19:51:51.564Z,81.95
2022-12-03T19:54:18.531Z,81.89
2022-12-03T19:56:46.196Z,82.06
2022-12-03T19:59:13.931Z,82.09
2022-12-03T20:01:42.917Z,81.83
2022-12-03T20:04:11.498Z,82.14
2022-12-03T20:06:39.646Z,82.36
2022-12-03T20:09:11.279Z,82.12
2022-12-03T20:11:40.271Z,82.18
2022-12-03T20:14:10.953Z,82.52
2022-12-03T20:16:37.856Z,81.93
2022-12-03T20:19:07.484Z,81.99
2022-12-03T20:21:37.224Z,82.32
2022-12-03T20:24:05.513Z,81.99
2022-12-03T20:26:32.995Z,81.98
2022-12-03T20:29:00.392Z,82.34
2022-12-03T20:31:30.654Z,82.10
2022-12-03T20:34:00.963Z,82.70
2022-12-03T20:36:29.893Z,82.10
2022-12-03T20:38:59.324Z,82.28
2022-12-03T20:41:26.687Z,82.08
2022-12-03T20:43:54.299Z,82.16
2022-12-03T20:46:27.727Z,82.09
2022-12-03T20:48:55.371Z,82.20
2022-12-03T20:51:25.597Z,82.24
2022-12-03T20:53:52.643Z,81.99
2022-12-03T20:56:23.350Z,82.25
2022-12-03T20:58:50.456Z,82.08
2022-12-03T21:01:26.578Z,82.47
2022-12-03T21:03:57.860Z,82.19
2022-12-03T21:06:27.963Z,82.40
2022-12-03T21:08:56.093Z,82.00
2022-12-03T21:11:26.034Z,82.27
2022-12-03T21:13:54.425Z,81.99
2022-12-03T21:16:39.794Z,81.98
2022-12-03T21:19:11.788Z,82.41
2022-12-03T21:21:38.796Z,82.34
2022-12-03T21:24:05.812Z,82.33
2022-12-03T21:26:32.696Z,82.06
2022-12-03T21:28:59.610Z,82.13
2022-12-03T21:31:26.986Z,81.86
2022-12-03T21:33:55.314Z,82.12
2022-12-03T21:36:23.863Z,82.04
2022-12-03T21:38:51.696Z,82.42
2022-12-03T21:41:18.549Z,82.37
2022-12-03T21:43:45.370Z,82.05
2022-12-03T21:47:11.575Z,82.27
2022-12-03T21:49:01.901Z,82.59
2022-12-03T21:51:28.982Z,82.33
2022-12-03T21:53:55.955Z,82.56
2022-12-03T21:56:22.971Z,82.42
2022-12-03T21:58:49.986Z,82.54
2022-12-03T22:01:21.169Z,82.45
2022-12-03T22:03:48.941Z,82.47
2022-12-03T22:06:17.152Z,82.53
2022-12-03T22:08:45.200Z,82.24
2022-12-03T22:11:17.101Z,82.68
2022-12-03T22:13:45.729Z,82.29
2022-12-03T22:16:17.156Z,82.87
2022-12-03T22:18:44.391Z,82.70
2022-12-03T22:21:14.345Z,82.58
2022-12-03T22:23:41.594Z,82.94
2022-12-03T22:26:12.652Z,82.56
2022-12-03T22:28:43.654Z,82.86
2022-12-03T22:31:11.387Z,82.82
2022-12-03T22:33:39.590Z,82.86
2022-12-03T22:36:17.972Z,82.93
2022-12-03T22:38:47.243Z,82.76
2022-12-03T22:41:14.708Z,82.73
2022-12-03T22:43:41.805Z,83.01
2022-12-03T22:46:12.178Z,82.83
2022-12-03T22:48:40.337Z,82.87
2022-12-03T22:51:14.943Z,82.73
2022-12-03T22:53:42.165Z,83.07
2022-12-03T22:56:09.371Z,83.11
2022-12-03T22:58:38.585Z,82.93
2022-12-03T23:01:06.691Z,83.24
2022-12-03T23:03:33.965Z,82.81
2022-12-03T23:06:00.869Z,82.94
2022-12-03T23:08:27.921Z,82.81
2022-12-03T23:10:54.923Z,82.82
2022-12-03T23:13:21.863Z,82.92
2022-12-03T23:15:52.044Z,82.71
2022-12-03T23:18:20.335Z,82.81
2022-12-03T23:20:50.425Z,82.71
2022-12-03T23:23:19.136Z,83.35
2022-12-03T23:25:58.271Z,82.47
2022-12-03T23:28:25.499Z,83.13
2022-12-03T23:30:52.581Z,83.05
2022-12-03T23:33:19.991Z,82.86
2022-12-03T23:35:47.041Z,82.76
2022-12-03T23:38:14.054Z,82.83
2022-12-03T23:40:47.708Z,82.80
2022-12-03T23:43:15.423Z,82.82
2022-12-03T23:45:42.488Z,82.87
2022-12-03T23:48:09.409Z,82.27
2022-12-03T23:50:39.252Z,83.13
2022-12-03T23:53:06.101Z,83.05
2022-12-03T23:55:33.597Z,82.93
2022-12-03T23:58:00.616Z,82.66
